KSBN/SBN METAR and TAF weather

Enter ICAO airport designator
Station Type Date Time Source
KSBN METAR 2019/12/10 05:54 UTC NOAA

KSBN 100554Z AUTO 28020G28KT 10SM OVC016 M01/M05 A2978 RMK AO2 PK WND 29028/0551 SLP090 T10111050 10094 21011 51039


Station Type Date Time Source
KSBN Decoded METAR 2019/12/10 05:54 UTC NOAA

SOUTH BEND REGIONAL AIRPORT, IN, United States (KSBN) 41-42N 086-19W 237M
Dec 10, 2019 - 12:54 AM EST / 2019.12.10 0554 UTC
Wind: from the W (280 degrees) at 23 MPH (20 KT) gusting to 32 MPH (28 KT):0
Visibility: 10 mile(s):0
Sky conditions: overcast
Temperature: 30.0 F (-1.1 C)
Windchill: 15 F (-9 C):1
Dew Point: 23.0 F (-5.0 C)
Relative Humidity: 74%
Pressure (altimeter): 29.78 in. Hg (1008 hPa)
Pressure tendency: 0.12 inches (3.9 hPa) higher than three hours ago
ob: KSBN 100554Z AUTO 28020G28KT 10SM OVC016 M01/M05 A2978 RMK AO2 PK WND 29028/0551 SLP090 T10111050 10094 21011 51039
cycle: 6

Station Type Date Time Source
KSBN TAF 2019/12/10 06:39 UTC NOAA

TAF KSBN 100536Z 1006/1106 28016G26KT P6SM OVC015
FM101300 28014KT P6SM OVC020
FM102100 25012KT P6SM SKC

Example: see airport list